Weather at Naval Outlying Field Imperial Beach (Ream Field)

Public forecast

Using degrees Fahrenheit for public forecast. Weather courtesy of forecast.io.

Current aviation weather report (METAR) for Naval Outlying Field Imperial Beach (Ream Field)

Report is more than 6 hours old.

2024/07/11 23:53 (retrieved 1 day ago)

KNRS 122353Z 32007KT 10SM BKN011 22/18 A2987 RMK AO2 SLP113 T02220178 58005

Closest aviation forecast (TAF) to Naval Outlying Field Imperial Beach (Ream Field)

Forecast is more than 12 hours old.

Closest forecast is North Island Naval Air Station-Halsey Field, 9.4 nm (17.4 km) NNW.

2024/07/11 13:39 Ammendment (retrieved 1 day ago)

TAF AMD KNZY 1113/1207 31004KT 4000 BR OVC002 QNH2977INS TEMPO 1113/1116 0800 BR VV002 BECMG 1116/1118 26008KT 9000 HZ SCT012 QNH2981INS AMD 1323 TX23/1121Z TN19/1207Z FS30222